KGKY

Arlington Municipal Airport

Arlington, Texas, USA
METAR KGKY 151553Z 32009KT 10SM CLR 08/M02 A3023 RMK AO2 SLP235 T00781022
Observed Flight Rules
Dec-15 @ 15:53 UTC (44 minutes ago) Visual Flight Rules
Wind Visibility Clouds
320° at 9 knots 10 miles
  • Clear skies
Temperatures Readings
Current 8°C / 46°F
Dewpoint -2°C / 28°F
Humidity 50%
Altimeter 30.23" Hg
Pressure 1023.5 hPa
Elevation 192
METAR KGKY 151553Z 32009KT 10SM CLR 08/M02 A3023 RMK AO2 SLP235 T00781022
Observed Flight Rules
Dec-15 @ 15:53 UTC
(44 minutes ago)
VFR
Wind Visibility
320° at 9 knots 10 miles
Clouds
  • Clear skies
Temperature Dewpoint
8°C / 46°F -2°C / 28°F
Humidity Altimeter Pressure
50% 30.23" Hg 1023.5 hPa